sensor_id;sensor_type;location;lat;lon;timestamp;temperature;humidity
2363;DHT22;64265;51.664;7.626;2023-01-05T00:00:22;21.30;77.50
2363;DHT22;64265;51.664;7.626;2023-01-05T00:02:50;21.30;77.00
2363;DHT22;64265;51.664;7.626;2023-01-05T00:05:17;21.20;76.90
2363;DHT22;64265;51.664;7.626;2023-01-05T00:07:44;21.20;76.90
2363;DHT22;64265;51.664;7.626;2023-01-05T00:10:10;21.20;76.90
2363;DHT22;64265;51.664;7.626;2023-01-05T00:12:58;21.20;77.00
2363;DHT22;64265;51.664;7.626;2023-01-05T00:15:42;21.20;77.20
2363;DHT22;64265;51.664;7.626;2023-01-05T00:18:27;21.20;77.10
2363;DHT22;64265;51.664;7.626;2023-01-05T00:21:12;21.20;77.20
2363;DHT22;64265;51.664;7.626;2023-01-05T00:23:57;21.10;77.30
2363;DHT22;64265;51.664;7.626;2023-01-05T00:26:24;21.10;77.50
2363;DHT22;64265;51.664;7.626;2023-01-05T00:28:51;21.10;77.60
2363;DHT22;64265;51.664;7.626;2023-01-05T00:31:17;21.10;77.60
2363;DHT22;64265;51.664;7.626;2023-01-05T00:33:45;21.10;77.50
2363;DHT22;64265;51.664;7.626;2023-01-05T00:36:12;21.10;77.50
2363;DHT22;64265;51.664;7.626;2023-01-05T00:38:39;21.00;77.50
2363;DHT22;64265;51.664;7.626;2023-01-05T00:41:05;21.00;77.60
2363;DHT22;64265;51.664;7.626;2023-01-05T00:43:32;21.00;77.70
2363;DHT22;64265;51.664;7.626;2023-01-05T00:45:59;21.00;77.70
2363;DHT22;64265;51.664;7.626;2023-01-05T00:48:25;21.00;77.80
2363;DHT22;64265;51.664;7.626;2023-01-05T00:50:54;21.00;77.80
2363;DHT22;64265;51.664;7.626;2023-01-05T00:53:20;21.00;77.90
2363;DHT22;64265;51.664;7.626;2023-01-05T00:55:55;21.00;77.80
2363;DHT22;64265;51.664;7.626;2023-01-05T00:58:22;20.90;77.80
2363;DHT22;64265;51.664;7.626;2023-01-05T01:00:48;20.90;77.90
2363;DHT22;64265;51.664;7.626;2023-01-05T01:03:15;20.90;77.90
2363;DHT22;64265;51.664;7.626;2023-01-05T01:05:42;20.90;77.90
2363;DHT22;64265;51.664;7.626;2023-01-05T01:08:10;20.90;78.00
2363;DHT22;64265;51.664;7.626;2023-01-05T01:10:38;20.80;78.20
2363;DHT22;64265;51.664;7.626;2023-01-05T01:13:05;20.80;78.10
2363;DHT22;64265;51.664;7.626;2023-01-05T01:15:32;20.80;78.20
2363;DHT22;64265;51.664;7.626;2023-01-05T01:17:58;20.80;78.30
2363;DHT22;64265;51.664;7.626;2023-01-05T01:20:25;20.80;78.40
2363;DHT22;64265;51.664;7.626;2023-01-05T01:22:52;20.70;78.30
2363;DHT22;64265;51.664;7.626;2023-01-05T01:25:20;20.70;78.40
2363;DHT22;64265;51.664;7.626;2023-01-05T01:27:46;20.70;78.30
2363;DHT22;64265;51.664;7.626;2023-01-05T01:30:13;20.70;78.40
2363;DHT22;64265;51.664;7.626;2023-01-05T01:32:40;20.70;78.50
2363;DHT22;64265;51.664;7.626;2023-01-05T01:35:07;20.70;79.40
2363;DHT22;64265;51.664;7.626;2023-01-05T01:37:34;20.70;78.70
2363;DHT22;64265;51.664;7.626;2023-01-05T01:40:01;20.70;78.70
2363;DHT22;64265;51.664;7.626;2023-01-05T01:42:29;20.70;78.80
2363;DHT22;64265;51.664;7.626;2023-01-05T01:44:57;20.60;78.80
2363;DHT22;64265;51.664;7.626;2023-01-05T01:47:29;20.60;79.00
2363;DHT22;64265;51.664;7.626;2023-01-05T01:49:59;20.70;79.30
2363;DHT22;64265;51.664;7.626;2023-01-05T01:52:28;20.70;79.00
2363;DHT22;64265;51.664;7.626;2023-01-05T01:54:56;20.70;78.80
2363;DHT22;64265;51.664;7.626;2023-01-05T01:57:25;20.80;78.70
2363;DHT22;64265;51.664;7.626;2023-01-05T01:59:55;20.80;78.60
2363;DHT22;64265;51.664;7.626;2023-01-05T02:02:22;20.80;78.60
2363;DHT22;64265;51.664;7.626;2023-01-05T02:04:49;20.70;78.50
2363;DHT22;64265;51.664;7.626;2023-01-05T02:07:16;20.70;78.50
2363;DHT22;64265;51.664;7.626;2023-01-05T02:09:43;20.70;78.40
2363;DHT22;64265;51.664;7.626;2023-01-05T02:12:21;20.70;78.30
2363;DHT22;64265;51.664;7.626;2023-01-05T02:14:57;20.70;78.30
2363;DHT22;64265;51.664;7.626;2023-01-05T02:17:34;20.70;78.30
2363;DHT22;64265;51.664;7.626;2023-01-05T02:20:32;20.70;78.30
2363;DHT22;64265;51.664;7.626;2023-01-05T02:23:21;20.70;78.30
2363;DHT22;64265;51.664;7.626;2023-01-05T02:26:20;20.70;78.30
2363;DHT22;64265;51.664;7.626;2023-01-05T02:29:17;20.70;78.20
2363;DHT22;64265;51.664;7.626;2023-01-05T02:31:55;20.70;79.00
2363;DHT22;64265;51.664;7.626;2023-01-05T02:34:30;20.70;78.30
2363;DHT22;64265;51.664;7.626;2023-01-05T02:37:02;20.70;78.30
2363;DHT22;64265;51.664;7.626;2023-01-05T02:39:38;20.70;78.30
2363;DHT22;64265;51.664;7.626;2023-01-05T02:42:09;20.70;79.20
2363;DHT22;64265;51.664;7.626;2023-01-05T02:44:38;20.60;78.30
2363;DHT22;64265;51.664;7.626;2023-01-05T02:49:49;20.60;78.40
2363;DHT22;64265;51.664;7.626;2023-01-05T02:52:17;20.60;78.40
2363;DHT22;64265;51.664;7.626;2023-01-05T02:54:48;20.60;78.50
2363;DHT22;64265;51.664;7.626;2023-01-05T02:57:20;20.60;78.50
2363;DHT22;64265;51.664;7.626;2023-01-05T03:00:12;20.60;78.50
2363;DHT22;64265;51.664;7.626;2023-01-05T03:02:42;20.60;78.60
2363;DHT22;64265;51.664;7.626;2023-01-05T03:05:17;20.50;78.50
2363;DHT22;64265;51.664;7.626;2023-01-05T03:07:47;20.50;78.50
2363;DHT22;64265;51.664;7.626;2023-01-05T03:10:16;20.50;78.50
2363;DHT22;64265;51.664;7.626;2023-01-05T03:13:04;20.50;78.70
2363;DHT22;64265;51.664;7.626;2023-01-05T03:15:50;20.50;78.70
2363;DHT22;64265;51.664;7.626;2023-01-05T03:18:25;20.50;78.80
2363;DHT22;64265;51.664;7.626;2023-01-05T03:20:53;20.40;78.70
2363;DHT22;64265;51.664;7.626;2023-01-05T03:23:21;20.40;78.80
2363;DHT22;64265;51.664;7.626;2023-01-05T03:26:07;20.40;78.90
2363;DHT22;64265;51.664;7.626;2023-01-05T03:28:56;20.40;78.90
2363;DHT22;64265;51.664;7.626;2023-01-05T03:31:44;20.40;78.90
2363;DHT22;64265;51.664;7.626;2023-01-05T03:34:36;20.40;78.90
2363;DHT22;64265;51.664;7.626;2023-01-05T03:37:27;20.40;79.00
2363;DHT22;64265;51.664;7.626;2023-01-05T03:39:58;20.40;79.10
2363;DHT22;64265;51.664;7.626;2023-01-05T03:42:25;20.40;79.10
2363;DHT22;64265;51.664;7.626;2023-01-05T03:44:54;20.40;79.10
2363;DHT22;64265;51.664;7.626;2023-01-05T03:47:22;20.40;79.10
2363;DHT22;64265;51.664;7.626;2023-01-05T03:49:51;20.30;79.10
2363;DHT22;64265;51.664;7.626;2023-01-05T03:52:17;20.30;79.10
2363;DHT22;64265;51.664;7.626;2023-01-05T03:54:44;20.30;79.20
2363;DHT22;64265;51.664;7.626;2023-01-05T03:57:11;20.30;79.10
2363;DHT22;64265;51.664;7.626;2023-01-05T03:59:37;20.30;79.10
2363;DHT22;64265;51.664;7.626;2023-01-05T04:02:04;20.30;79.10
2363;DHT22;64265;51.664;7.626;2023-01-05T04:04:31;20.30;79.20
2363;DHT22;64265;51.664;7.626;2023-01-05T04:06:59;20.30;79.20
2363;DHT22;64265;51.664;7.626;2023-01-05T04:09:26;20.30;79.20
2363;DHT22;64265;51.664;7.626;2023-01-05T04:11:52;20.30;79.30
2363;DHT22;64265;51.664;7.626;2023-01-05T04:14:19;20.30;79.30
2363;DHT22;64265;51.664;7.626;2023-01-05T04:16:46;20.20;79.20
2363;DHT22;64265;51.664;7.626;2023-01-05T04:19:13;20.20;79.30
2363;DHT22;64265;51.664;7.626;2023-01-05T04:21:39;20.20;79.30
2363;DHT22;64265;51.664;7.626;2023-01-05T04:24:08;20.20;79.40
2363;DHT22;64265;51.664;7.626;2023-01-05T04:26:35;20.20;79.50
2363;DHT22;64265;51.664;7.626;2023-01-05T04:29:02;20.20;79.50
2363;DHT22;64265;51.664;7.626;2023-01-05T04:31:29;20.20;79.50
2363;DHT22;64265;51.664;7.626;2023-01-05T04:33:56;20.20;79.50
2363;DHT22;64265;51.664;7.626;2023-01-05T04:36:23;20.20;79.50
2363;DHT22;64265;51.664;7.626;2023-01-05T04:38:50;20.20;79.70
2363;DHT22;64265;51.664;7.626;2023-01-05T04:41:18;20.20;79.60
2363;DHT22;64265;51.664;7.626;2023-01-05T04:43:44;20.10;79.50
2363;DHT22;64265;51.664;7.626;2023-01-05T04:46:11;20.10;79.50
2363;DHT22;64265;51.664;7.626;2023-01-05T04:48:38;20.10;79.60
2363;DHT22;64265;51.664;7.626;2023-01-05T04:51:05;20.10;79.80
2363;DHT22;64265;51.664;7.626;2023-01-05T04:53:31;20.00;79.80
2363;DHT22;64265;51.664;7.626;2023-01-05T04:55:58;20.00;79.80
2363;DHT22;64265;51.664;7.626;2023-01-05T04:58:26;20.00;79.90
2363;DHT22;64265;51.664;7.626;2023-01-05T05:00:53;20.00;80.00
2363;DHT22;64265;51.664;7.626;2023-01-05T05:03:20;20.00;80.20
2363;DHT22;64265;51.664;7.626;2023-01-05T05:05:47;20.00;80.30
2363;DHT22;64265;51.664;7.626;2023-01-05T05:08:13;20.20;80.00
2363;DHT22;64265;51.664;7.626;2023-01-05T05:10:40;20.30;79.20
2363;DHT22;64265;51.664;7.626;2023-01-05T05:13:07;20.50;78.20
2363;DHT22;64265;51.664;7.626;2023-01-05T05:15:35;20.70;77.50
2363;DHT22;64265;51.664;7.626;2023-01-05T05:18:01;20.80;77.00
2363;DHT22;64265;51.664;7.626;2023-01-05T05:20:28;21.00;76.70
2363;DHT22;64265;51.664;7.626;2023-01-05T05:22:55;21.10;76.30
2363;DHT22;64265;51.664;7.626;2023-01-05T05:25:21;21.20;76.00
2363;DHT22;64265;51.664;7.626;2023-01-05T05:27:48;21.20;75.50
2363;DHT22;64265;51.664;7.626;2023-01-05T05:30:15;21.40;75.40
2363;DHT22;64265;51.664;7.626;2023-01-05T05:32:43;21.40;75.10
2363;DHT22;64265;51.664;7.626;2023-01-05T05:35:10;21.50;74.80
2363;DHT22;64265;51.664;7.626;2023-01-05T05:37:37;21.60;74.60
2363;DHT22;64265;51.664;7.626;2023-01-05T05:40:04;21.60;74.50
2363;DHT22;64265;51.664;7.626;2023-01-05T05:42:31;21.60;74.40
2363;DHT22;64265;51.664;7.626;2023-01-05T05:44:58;21.60;74.60
2363;DHT22;64265;51.664;7.626;2023-01-05T05:47:25;21.70;74.00
2363;DHT22;64265;51.664;7.626;2023-01-05T05:49:53;21.80;73.80
2363;DHT22;64265;51.664;7.626;2023-01-05T05:52:19;21.80;73.90
2363;DHT22;64265;51.664;7.626;2023-01-05T05:54:46;21.70;73.90
2363;DHT22;64265;51.664;7.626;2023-01-05T05:57:13;21.70;74.00
2363;DHT22;64265;51.664;7.626;2023-01-05T05:59:41;21.70;74.20
2363;DHT22;64265;51.664;7.626;2023-01-05T06:02:08;21.70;74.30
2363;DHT22;64265;51.664;7.626;2023-01-05T06:04:35;21.60;74.20
2363;DHT22;64265;51.664;7.626;2023-01-05T06:07:03;21.60;74.30
2363;DHT22;64265;51.664;7.626;2023-01-05T06:09:30;21.70;74.30
2363;DHT22;64265;51.664;7.626;2023-01-05T06:11:56;21.80;73.90
2363;DHT22;64265;51.664;7.626;2023-01-05T06:14:23;21.90;73.60
2363;DHT22;64265;51.664;7.626;2023-01-05T06:16:50;21.90;73.40
2363;DHT22;64265;51.664;7.626;2023-01-05T06:19:16;21.90;73.30
2363;DHT22;64265;51.664;7.626;2023-01-05T06:21:43;22.00;73.10
2363;DHT22;64265;51.664;7.626;2023-01-05T06:24:11;22.10;73.00
2363;DHT22;64265;51.664;7.626;2023-01-05T06:26:38;22.10;72.90
2363;DHT22;64265;51.664;7.626;2023-01-05T06:29:04;22.10;73.00
2363;DHT22;64265;51.664;7.626;2023-01-05T06:31:31;22.00;73.00
2363;DHT22;64265;51.664;7.626;2023-01-05T06:33:58;22.00;73.10
2363;DHT22;64265;51.664;7.626;2023-01-05T06:36:25;21.90;73.30
2363;DHT22;64265;51.664;7.626;2023-01-05T06:38:51;21.90;73.30
2363;DHT22;64265;51.664;7.626;2023-01-05T06:41:19;21.90;73.50
2363;DHT22;64265;51.664;7.626;2023-01-05T06:43:46;21.80;73.50
2363;DHT22;64265;51.664;7.626;2023-01-05T06:46:13;21.80;73.60
2363;DHT22;64265;51.664;7.626;2023-01-05T06:48:40;21.80;73.50
2363;DHT22;64265;51.664;7.626;2023-01-05T06:51:06;21.90;73.30
2363;DHT22;64265;51.664;7.626;2023-01-05T06:53:33;22.00;73.20
2363;DHT22;64265;51.664;7.626;2023-01-05T06:56:00;22.00;73.00
2363;DHT22;64265;51.664;7.626;2023-01-05T06:58:28;22.10;73.00
2363;DHT22;64265;51.664;7.626;2023-01-05T07:00:54;22.10;72.70
2363;DHT22;64265;51.664;7.626;2023-01-05T07:03:21;22.20;72.60
2363;DHT22;64265;51.664;7.626;2023-01-05T07:05:49;22.20;72.40
2363;DHT22;64265;51.664;7.626;2023-01-05T07:08:15;22.20;72.50
2363;DHT22;64265;51.664;7.626;2023-01-05T07:10:42;22.10;72.60
2363;DHT22;64265;51.664;7.626;2023-01-05T07:13:09;22.10;72.80
2363;DHT22;64265;51.664;7.626;2023-01-05T07:15:37;22.00;72.90
2363;DHT22;64265;51.664;7.626;2023-01-05T07:18:03;22.00;73.00
2363;DHT22;64265;51.664;7.626;2023-01-05T07:20:30;22.00;73.00
2363;DHT22;64265;51.664;7.626;2023-01-05T07:22:57;22.00;72.90
2363;DHT22;64265;51.664;7.626;2023-01-05T07:25:24;22.00;72.80
2363;DHT22;64265;51.664;7.626;2023-01-05T07:27:55;22.10;72.80
2363;DHT22;64265;51.664;7.626;2023-01-05T07:30:22;22.10;72.60
2363;DHT22;64265;51.664;7.626;2023-01-05T07:32:50;22.20;72.70
2363;DHT22;64265;51.664;7.626;2023-01-05T07:35:17;22.20;72.40
2363;DHT22;64265;51.664;7.626;2023-01-05T07:37:44;22.20;72.40
2363;DHT22;64265;51.664;7.626;2023-01-05T07:40:11;22.20;72.30
2363;DHT22;64265;51.664;7.626;2023-01-05T07:42:38;22.20;72.40
2363;DHT22;64265;51.664;7.626;2023-01-05T07:45:06;22.10;72.50
2363;DHT22;64265;51.664;7.626;2023-01-05T07:47:32;22.10;72.60
2363;DHT22;64265;51.664;7.626;2023-01-05T07:50:00;22.10;72.70
2363;DHT22;64265;51.664;7.626;2023-01-05T07:52:27;22.10;72.60
2363;DHT22;64265;51.664;7.626;2023-01-05T07:54:56;22.20;72.60
2363;DHT22;64265;51.664;7.626;2023-01-05T07:57:23;22.20;72.60
2363;DHT22;64265;51.664;7.626;2023-01-05T07:59:50;22.20;72.60
2363;DHT22;64265;51.664;7.626;2023-01-05T08:02:16;22.10;72.60
2363;DHT22;64265;51.664;7.626;2023-01-05T08:04:43;22.10;72.70
2363;DHT22;64265;51.664;7.626;2023-01-05T08:07:11;22.10;73.70
2363;DHT22;64265;51.664;7.626;2023-01-05T08:09:40;22.00;74.10
2363;DHT22;64265;51.664;7.626;2023-01-05T08:12:25;22.00;74.60
2363;DHT22;64265;51.664;7.626;2023-01-05T08:14:52;21.90;74.40
2363;DHT22;64265;51.664;7.626;2023-01-05T08:17:19;21.90;74.80
2363;DHT22;64265;51.664;7.626;2023-01-05T08:19:46;21.80;75.10
2363;DHT22;64265;51.664;7.626;2023-01-05T08:22:14;21.80;75.40
2363;DHT22;64265;51.664;7.626;2023-01-05T08:24:41;21.70;75.30
2363;DHT22;64265;51.664;7.626;2023-01-05T08:27:08;21.70;75.40
2363;DHT22;64265;51.664;7.626;2023-01-05T08:29:35;21.70;75.90
2363;DHT22;64265;51.664;7.626;2023-01-05T08:32:01;21.80;76.80
2363;DHT22;64265;51.664;7.626;2023-01-05T08:34:28;21.50;77.20
2363;DHT22;64265;51.664;7.626;2023-01-05T08:36:55;21.40;76.80
2363;DHT22;64265;51.664;7.626;2023-01-05T08:39:23;21.40;76.70
2363;DHT22;64265;51.664;7.626;2023-01-05T08:41:49;21.70;76.10
2363;DHT22;64265;51.664;7.626;2023-01-05T08:44:16;21.90;75.50
2363;DHT22;64265;51.664;7.626;2023-01-05T08:46:43;22.10;75.30
2363;DHT22;64265;51.664;7.626;2023-01-05T08:49:10;22.20;74.60
2363;DHT22;64265;51.664;7.626;2023-01-05T08:51:37;22.30;74.20
2363;DHT22;64265;51.664;7.626;2023-01-05T08:54:04;22.30;74.00
2363;DHT22;64265;51.664;7.626;2023-01-05T08:56:32;22.30;73.90
2363;DHT22;64265;51.664;7.626;2023-01-05T08:58:59;22.30;73.90
2363;DHT22;64265;51.664;7.626;2023-01-05T09:01:26;22.40;73.80
2363;DHT22;64265;51.664;7.626;2023-01-05T09:03:53;22.40;73.80
2363;DHT22;64265;51.664;7.626;2023-01-05T09:06:19;22.30;73.60
2363;DHT22;64265;51.664;7.626;2023-01-05T09:08:46;22.30;73.70
2363;DHT22;64265;51.664;7.626;2023-01-05T09:11:15;22.30;73.80
2363;DHT22;64265;51.664;7.626;2023-01-05T09:13:47;22.20;73.90
2363;DHT22;64265;51.664;7.626;2023-01-05T09:16:15;22.30;74.00
2363;DHT22;64265;51.664;7.626;2023-01-05T09:18:43;22.20;74.00
2363;DHT22;64265;51.664;7.626;2023-01-05T09:21:11;22.20;74.10
2363;DHT22;64265;51.664;7.626;2023-01-05T09:23:38;22.20;74.30
2363;DHT22;64265;51.664;7.626;2023-01-05T09:26:05;22.20;74.30
2363;DHT22;64265;51.664;7.626;2023-01-05T09:28:33;22.20;74.50
2363;DHT22;64265;51.664;7.626;2023-01-05T09:31:07;22.10;74.50
2363;DHT22;64265;51.664;7.626;2023-01-05T09:33:33;22.10;74.50
2363;DHT22;64265;51.664;7.626;2023-01-05T09:36:00;22.10;74.60
2363;DHT22;64265;51.664;7.626;2023-01-05T09:38:27;22.10;74.60
2363;DHT22;64265;51.664;7.626;2023-01-05T09:40:57;22.10;74.70
2363;DHT22;64265;51.664;7.626;2023-01-05T09:43:28;22.10;74.70
2363;DHT22;64265;51.664;7.626;2023-01-05T09:45:57;22.10;74.70
2363;DHT22;64265;51.664;7.626;2023-01-05T09:48:25;22.10;74.80
2363;DHT22;64265;51.664;7.626;2023-01-05T09:50:54;22.10;74.70
2363;DHT22;64265;51.664;7.626;2023-01-05T09:53:26;22.00;74.70
2363;DHT22;64265;51.664;7.626;2023-01-05T09:55:54;22.10;74.80
2363;DHT22;64265;51.664;7.626;2023-01-05T09:58:24;22.10;74.80
2363;DHT22;64265;51.664;7.626;2023-01-05T10:01:03;22.10;74.80
2363;DHT22;64265;51.664;7.626;2023-01-05T10:03:35;22.10;74.80
2363;DHT22;64265;51.664;7.626;2023-01-05T10:08:34;22.10;74.80
2363;DHT22;64265;51.664;7.626;2023-01-05T10:11:04;22.10;74.80
2363;DHT22;64265;51.664;7.626;2023-01-05T10:13:56;22.10;74.80
2363;DHT22;64265;51.664;7.626;2023-01-05T10:16:24;22.10;74.70
2363;DHT22;64265;51.664;7.626;2023-01-05T10:18:54;22.10;74.60
2363;DHT22;64265;51.664;7.626;2023-01-05T10:21:26;22.10;74.50
2363;DHT22;64265;51.664;7.626;2023-01-05T10:24:07;22.10;75.40
2363;DHT22;64265;51.664;7.626;2023-01-05T10:26:41;22.10;74.80
2363;DHT22;64265;51.664;7.626;2023-01-05T10:29:10;22.00;74.90
2363;DHT22;64265;51.664;7.626;2023-01-05T10:31:44;22.00;75.10
2363;DHT22;64265;51.664;7.626;2023-01-05T10:34:20;22.00;75.20
2363;DHT22;64265;51.664;7.626;2023-01-05T10:36:59;21.80;75.90
2363;DHT22;64265;51.664;7.626;2023-01-05T10:39:55;21.70;76.20
2363;DHT22;64265;51.664;7.626;2023-01-05T10:42:33;21.70;76.30
2363;DHT22;64265;51.664;7.626;2023-01-05T10:45:07;21.70;76.60
2363;DHT22;64265;51.664;7.626;2023-01-05T10:47:37;21.70;76.70
2363;DHT22;64265;51.664;7.626;2023-01-05T10:50:20;21.80;76.50
2363;DHT22;64265;51.664;7.626;2023-01-05T10:52:51;21.80;76.60
2363;DHT22;64265;51.664;7.626;2023-01-05T10:55:19;21.90;76.70
2363;DHT22;64265;51.664;7.626;2023-01-05T10:57:47;22.10;76.30
2363;DHT22;64265;51.664;7.626;2023-01-05T11:00:16;22.20;75.70
2363;DHT22;64265;51.664;7.626;2023-01-05T11:02:47;22.40;75.60
2363;DHT22;64265;51.664;7.626;2023-01-05T11:05:25;22.70;74.70
2363;DHT22;64265;51.664;7.626;2023-01-05T11:07:54;23.00;73.70
2363;DHT22;64265;51.664;7.626;2023-01-05T11:10:25;23.30;72.90
2363;DHT22;64265;51.664;7.626;2023-01-05T11:12:59;23.50;72.20
2363;DHT22;64265;51.664;7.626;2023-01-05T11:15:27;23.70;71.70
2363;DHT22;64265;51.664;7.626;2023-01-05T11:17:54;23.80;71.30
2363;DHT22;64265;51.664;7.626;2023-01-05T11:20:22;23.90;70.90
2363;DHT22;64265;51.664;7.626;2023-01-05T11:22:50;23.90;70.70
2363;DHT22;64265;51.664;7.626;2023-01-05T11:25:25;23.90;70.70
2363;DHT22;64265;51.664;7.626;2023-01-05T11:28:10;24.00;70.60
2363;DHT22;64265;51.664;7.626;2023-01-05T11:30:56;23.90;70.70
2363;DHT22;64265;51.664;7.626;2023-01-05T11:33:24;23.80;70.90
2363;DHT22;64265;51.664;7.626;2023-01-05T11:35:54;23.70;71.20
2363;DHT22;64265;51.664;7.626;2023-01-05T11:38:24;23.60;71.10
2363;DHT22;64265;51.664;7.626;2023-01-05T11:40:52;23.60;71.20
2363;DHT22;64265;51.664;7.626;2023-01-05T11:43:22;23.60;71.40
2363;DHT22;64265;51.664;7.626;2023-01-05T11:45:51;23.60;71.50
2363;DHT22;64265;51.664;7.626;2023-01-05T11:48:21;23.60;71.60
2363;DHT22;64265;51.664;7.626;2023-01-05T11:50:51;23.60;71.50
2363;DHT22;64265;51.664;7.626;2023-01-05T11:53:35;23.50;71.60
2363;DHT22;64265;51.664;7.626;2023-01-05T11:56:04;23.50;71.70
2363;DHT22;64265;51.664;7.626;2023-01-05T11:58:32;23.50;71.60
2363;DHT22;64265;51.664;7.626;2023-01-05T12:01:35;23.50;71.60
2363;DHT22;64265;51.664;7.626;2023-01-05T12:04:42;23.50;71.70
2363;DHT22;64265;51.664;7.626;2023-01-05T12:07:25;23.50;72.00
2363;DHT22;64265;51.664;7.626;2023-01-05T12:10:03;23.50;72.10
2363;DHT22;64265;51.664;7.626;2023-01-05T12:12:39;23.40;71.80
2363;DHT22;64265;51.664;7.626;2023-01-05T12:15:33;23.50;71.90
2363;DHT22;64265;51.664;7.626;2023-01-05T12:18:16;23.40;71.80
2363;DHT22;64265;51.664;7.626;2023-01-05T12:20:54;23.40;72.00
2363;DHT22;64265;51.664;7.626;2023-01-05T12:23:31;23.40;71.70
2363;DHT22;64265;51.664;7.626;2023-01-05T12:26:10;23.50;71.60
2363;DHT22;64265;51.664;7.626;2023-01-05T12:29:11;23.50;71.50
2363;DHT22;64265;51.664;7.626;2023-01-05T12:31:59;23.60;71.40
2363;DHT22;64265;51.664;7.626;2023-01-05T12:34:39;23.70;71.00
2363;DHT22;64265;51.664;7.626;2023-01-05T12:37:18;23.70;69.80
2363;DHT22;64265;51.664;7.626;2023-01-05T12:42:57;23.80;70.00
2363;DHT22;64265;51.664;7.626;2023-01-05T12:45:50;23.80;70.00
2363;DHT22;64265;51.664;7.626;2023-01-05T12:48:25;23.80;70.30
2363;DHT22;64265;51.664;7.626;2023-01-05T12:50:57;23.90;70.00
2363;DHT22;64265;51.664;7.626;2023-01-05T12:53:36;24.00;69.70
2363;DHT22;64265;51.664;7.626;2023-01-05T12:56:16;24.10;69.70
2363;DHT22;64265;51.664;7.626;2023-01-05T12:59:01;24.10;69.20
2363;DHT22;64265;51.664;7.626;2023-01-05T13:01:30;23.90;69.80
2363;DHT22;64265;51.664;7.626;2023-01-05T13:04:02;23.90;69.80
2363;DHT22;64265;51.664;7.626;2023-01-05T13:06:35;23.90;70.30
2363;DHT22;64265;51.664;7.626;2023-01-05T13:09:08;23.80;70.50
2363;DHT22;64265;51.664;7.626;2023-01-05T13:11:42;23.70;70.70
2363;DHT22;64265;51.664;7.626;2023-01-05T13:14:15;23.50;70.30
2363;DHT22;64265;51.664;7.626;2023-01-05T13:16:45;23.40;70.80
2363;DHT22;64265;51.664;7.626;2023-01-05T13:19:17;23.60;70.90
2363;DHT22;64265;51.664;7.626;2023-01-05T13:21:46;23.70;71.50
2363;DHT22;64265;51.664;7.626;2023-01-05T13:24:16;23.50;70.90
2363;DHT22;64265;51.664;7.626;2023-01-05T13:26:47;23.50;71.10
2363;DHT22;64265;51.664;7.626;2023-01-05T13:29:22;23.60;71.00
2363;DHT22;64265;51.664;7.626;2023-01-05T13:32:10;23.60;71.10
2363;DHT22;64265;51.664;7.626;2023-01-05T13:34:50;23.60;71.10
2363;DHT22;64265;51.664;7.626;2023-01-05T13:37:58;23.50;71.20
2363;DHT22;64265;51.664;7.626;2023-01-05T13:40:36;23.40;70.10
2363;DHT22;64265;51.664;7.626;2023-01-05T13:43:19;23.20;70.00
2363;DHT22;64265;51.664;7.626;2023-01-05T13:46:08;23.20;70.40
2363;DHT22;64265;51.664;7.626;2023-01-05T13:48:52;23.10;69.80
2363;DHT22;64265;51.664;7.626;2023-01-05T13:51:45;23.10;69.20
2363;DHT22;64265;51.664;7.626;2023-01-05T13:54:17;23.00;68.90
2363;DHT22;64265;51.664;7.626;2023-01-05T13:56:46;22.90;68.50
2363;DHT22;64265;51.664;7.626;2023-01-05T13:59:22;22.90;68.50
2363;DHT22;64265;51.664;7.626;2023-01-05T14:01:51;22.90;68.70
2363;DHT22;64265;51.664;7.626;2023-01-05T14:04:22;23.10;69.50
2363;DHT22;64265;51.664;7.626;2023-01-05T14:06:52;23.10;69.90
2363;DHT22;64265;51.664;7.626;2023-01-05T14:09:26;23.20;70.00
2363;DHT22;64265;51.664;7.626;2023-01-05T14:12:23;23.30;69.90
2363;DHT22;64265;51.664;7.626;2023-01-05T14:14:59;23.40;69.90
2363;DHT22;64265;51.664;7.626;2023-01-05T14:17:52;23.40;69.80
2363;DHT22;64265;51.664;7.626;2023-01-05T14:20:35;23.40;69.80
2363;DHT22;64265;51.664;7.626;2023-01-05T14:25:50;23.50;70.00
2363;DHT22;64265;51.664;7.626;2023-01-05T14:28:51;23.40;69.90
2363;DHT22;64265;51.664;7.626;2023-01-05T14:31:41;23.40;70.30
2363;DHT22;64265;51.664;7.626;2023-01-05T14:34:18;23.50;70.10
2363;DHT22;64265;51.664;7.626;2023-01-05T14:37:02;23.60;70.20
2363;DHT22;64265;51.664;7.626;2023-01-05T14:39:36;23.60;70.10
2363;DHT22;64265;51.664;7.626;2023-01-05T14:42:14;23.60;70.10
2363;DHT22;64265;51.664;7.626;2023-01-05T14:44:44;23.60;70.20
2363;DHT22;64265;51.664;7.626;2023-01-05T14:47:14;23.60;70.30
2363;DHT22;64265;51.664;7.626;2023-01-05T14:49:51;23.60;70.40
2363;DHT22;64265;51.664;7.626;2023-01-05T14:52:51;23.60;70.40
2363;DHT22;64265;51.664;7.626;2023-01-05T14:55:20;23.60;70.40
2363;DHT22;64265;51.664;7.626;2023-01-05T14:57:49;23.60;70.40
2363;DHT22;64265;51.664;7.626;2023-01-05T15:00:25;23.60;70.40
2363;DHT22;64265;51.664;7.626;2023-01-05T15:03:03;23.70;70.40
2363;DHT22;64265;51.664;7.626;2023-01-05T15:05:32;23.30;71.30
2363;DHT22;64265;51.664;7.626;2023-01-05T15:08:10;23.00;72.30
2363;DHT22;64265;51.664;7.626;2023-01-05T15:11:14;22.80;72.80
2363;DHT22;64265;51.664;7.626;2023-01-05T15:17:20;22.60;73.50
2363;DHT22;64265;51.664;7.626;2023-01-05T15:23:00;22.50;74.00
2363;DHT22;64265;51.664;7.626;2023-01-05T15:25:38;22.40;74.20
2363;DHT22;64265;51.664;7.626;2023-01-05T15:28:32;22.30;74.20
2363;DHT22;64265;51.664;7.626;2023-01-05T15:31:21;22.30;74.50
2363;DHT22;64265;51.664;7.626;2023-01-05T15:33:52;22.20;74.20
2363;DHT22;64265;51.664;7.626;2023-01-05T15:36:24;22.20;74.40
2363;DHT22;64265;51.664;7.626;2023-01-05T15:38:53;22.20;74.60
2363;DHT22;64265;51.664;7.626;2023-01-05T15:41:20;22.30;74.10
2363;DHT22;64265;51.664;7.626;2023-01-05T15:43:48;22.60;74.10
2363;DHT22;64265;51.664;7.626;2023-01-05T15:46:17;23.00;73.00
2363;DHT22;64265;51.664;7.626;2023-01-05T15:48:47;23.30;72.40
2363;DHT22;64265;51.664;7.626;2023-01-05T15:51:21;23.40;71.80
2363;DHT22;64265;51.664;7.626;2023-01-05T15:53:54;23.60;71.50
2363;DHT22;64265;51.664;7.626;2023-01-05T15:56:28;23.60;71.20
2363;DHT22;64265;51.664;7.626;2023-01-05T15:58:56;23.60;71.00
2363;DHT22;64265;51.664;7.626;2023-01-05T16:01:27;23.60;71.20
2363;DHT22;64265;51.664;7.626;2023-01-05T16:04:05;23.80;70.90
2363;DHT22;64265;51.664;7.626;2023-01-05T16:06:32;23.80;70.60
2363;DHT22;64265;51.664;7.626;2023-01-05T16:09:09;23.70;70.80
2363;DHT22;64265;51.664;7.626;2023-01-05T16:11:40;23.60;70.70
2363;DHT22;64265;51.664;7.626;2023-01-05T16:14:10;23.60;71.00
2363;DHT22;64265;51.664;7.626;2023-01-05T16:16:42;23.60;71.00
2363;DHT22;64265;51.664;7.626;2023-01-05T16:19:25;23.70;70.90
2363;DHT22;64265;51.664;7.626;2023-01-05T16:21:55;23.60;70.90
2363;DHT22;64265;51.664;7.626;2023-01-05T16:24:28;23.70;71.00
2363;DHT22;64265;51.664;7.626;2023-01-05T16:26:56;23.60;71.00
2363;DHT22;64265;51.664;7.626;2023-01-05T16:29:32;23.70;71.30
2363;DHT22;64265;51.664;7.626;2023-01-05T16:31:59;23.70;71.30